Time;durP1;ratioP1;P1;durP2;ratioP2;P2;SDS_P1;SDS_P2;PMS_P1;PMS_P2;Temp;Humidity;BMP_temperature;BMP_pressure;BME280_temperature;BME280_humidity;BME280_pressure;Samples;Min_cycle;Max_cycle;Signal;HPM_P1;HPM_P2
2022/10/31 00:00:53;;;;;;;;;;;;;;;8.32;100.00;93637.34;5129497;27;20333;-78
2022/10/31 00:03:19;;;;;;;;;;;;;;;8.30;100.00;93639.31;5118388;27;19964;-79
2022/10/31 00:05:47;;;;;;;;;;;;;;;8.31;100.00;93640.09;5132200;27;19923;-79
2022/10/31 00:08:15;;;;;;;;;;;;;;;8.27;100.00;93639.66;5132290;27;19919;-79
2022/10/31 00:10:42;;;;;;;;;;;;;;;8.26;100.00;93635.53;5132615;27;20321;-79
2022/10/31 00:13:09;;;;;;;;;;;;;;;8.24;100.00;93633.16;5126308;27;19965;-79
2022/10/31 00:15:35;;;;;;;;;;;;;;;8.22;100.00;93627.44;5122827;27;20499;-79
2022/10/31 00:18:02;;;;;;;;;;;;;;;8.18;100.00;93631.34;5121331;27;19919;-79
2022/10/31 00:20:28;;;;;;;;;;;;;;;8.16;100.00;93628.94;5120321;27;19928;-79
2022/10/31 00:22:58;;;;;;;;;;;;;;;8.13;100.00;93625.97;5122708;27;19919;-79
2022/10/31 00:25:26;;;;;;;;;;;;;;;8.08;100.00;93625.72;5121732;27;19919;-79
2022/10/31 00:27:53;;;;;;;;;;;;;;;8.04;100.00;93630.44;5120916;27;19923;-79
2022/10/31 00:30:19;;;;;;;;;;;;;;;8.03;100.00;93628.84;5120840;27;19963;-79
2022/10/31 00:32:46;;;;;;;;;;;;;;;8.00;100.00;93630.00;5122136;27;20023;-78
2022/10/31 00:35:12;;;;;;;;;;;;;;;7.94;100.00;93629.94;5120369;27;20075;-78
2022/10/31 00:37:39;;;;;;;;;;;;;;;7.94;100.00;93619.69;5121900;27;19919;-78
2022/10/31 00:40:06;;;;;;;;;;;;;;;7.93;100.00;93625.78;5121277;27;19973;-78
2022/10/31 00:42:34;;;;;;;;;;;;;;;7.91;100.00;93630.31;5120576;27;19923;-78
2022/10/31 00:45:00;;;;;;;;;;;;;;;7.89;100.00;93622.81;5120648;27;19920;-78
2022/10/31 00:47:26;;;;;;;;;;;;;;;7.87;100.00;93627.34;5120867;27;19923;-78
2022/10/31 00:49:53;;;;;;;;;;;;;;;7.88;100.00;93624.56;5122170;27;20400;-78
2022/10/31 00:52:19;;;;;;;;;;;;;;;7.88;100.00;93622.00;5120370;27;19944;-78
2022/10/31 00:54:46;;;;;;;;;;;;;;;7.88;100.00;93622.00;5120756;27;19923;-78
2022/10/31 00:57:12;;;;;;;;;;;;;;;7.88;100.00;93622.00;5111788;27;19919;-77
2022/10/31 00:59:40;;;;;;;;;;;;;;;7.89;100.00;93620.25;5131384;27;20542;-77
2022/10/31 01:02:07;;;;;;;;;;;;;;;7.92;100.00;93619.09;5131100;27;19976;-77
2022/10/31 01:04:33;;;;;;;;;;;;;;;7.89;100.00;93612.59;5131257;27;20367;-77
2022/10/31 01:07:00;;;;;;;;;;;;;;;7.85;100.00;93624.16;5131424;27;19920;-77
2022/10/31 01:09:26;;;;;;;;;;;;;;;7.87;100.00;93617.88;5131144;27;19923;-77
2022/10/31 01:11:53;;;;;;;;;;;;;;;7.86;100.00;93626.53;5131135;27;19919;-77
2022/10/31 01:14:19;;;;;;;;;;;;;;;7.84;100.00;93622.56;5131276;27;20324;-77
2022/10/31 01:16:47;;;;;;;;;;;;;;;7.77;100.00;93624.28;5131306;27;19976;-77
2022/10/31 01:19:13;;;;;;;;;;;;;;;7.72;100.00;93625.59;5130858;27;20371;-77
2022/10/31 01:21:40;;;;;;;;;;;;;;;7.68;100.00;93624.38;5131183;27;19923;-79
2022/10/31 01:24:06;;;;;;;;;;;;;;;7.52;100.00;93627.16;5130786;27;19968;-79
2022/10/31 01:26:34;;;;;;;;;;;;;;;7.45;100.00;93627.88;5131033;27;19964;-79
2022/10/31 01:29:01;;;;;;;;;;;;;;;7.46;100.00;93624.34;5130726;27;19919;-79
2022/10/31 01:31:29;;;;;;;;;;;;;;;7.58;100.00;93629.78;5130545;27;19924;-79
2022/10/31 01:33:57;;;;;;;;;;;;;;;7.62;100.00;93620.78;5130552;27;19923;-78
2022/10/31 01:36:24;;;;;;;;;;;;;;;7.62;100.00;93625.91;5130906;27;19927;-80
2022/10/31 01:38:52;;;;;;;;;;;;;;;7.59;100.00;93625.47;5131313;27;19932;-79
2022/10/31 01:41:19;;;;;;;;;;;;;;;7.58;100.00;93621.31;5130968;27;20317;-79
2022/10/31 01:43:47;;;;;;;;;;;;;;;7.59;100.00;93625.47;5116537;27;20426;-79
2022/10/31 01:46:14;;;;;;;;;;;;;;;7.58;100.00;93627.22;5130612;27;20436;-79
2022/10/31 01:48:41;;;;;;;;;;;;;;;7.60;100.00;93627.84;5130694;27;19920;-79
2022/10/31 01:51:12;;;;;;;;;;;;;;;7.62;100.00;93627.66;5130770;27;19919;-79
2022/10/31 01:53:38;;;;;;;;;;;;;;;7.70;100.00;93622.44;5130618;27;20263;-80
2022/10/31 01:56:05;;;;;;;;;;;;;;;7.72;100.00;93624.81;5131116;27;19968;-80
2022/10/31 01:58:32;;;;;;;;;;;;;;;7.84;100.00;93622.56;5130709;27;19923;-80
2022/10/31 02:01:00;;;;;;;;;;;;;;;7.86;100.00;93626.53;5130411;27;19920;-80
2022/10/31 02:03:27;;;;;;;;;;;;;;;7.93;100.00;93625.78;5130159;27;19923;-80
2022/10/31 02:05:55;;;;;;;;;;;;;;;7.95;100.00;93619.53;5130683;28;19972;-81
2022/10/31 02:08:26;;;;;;;;;;;;;;;7.96;100.00;93620.31;5130471;28;19919;-81
2022/10/31 02:10:52;;;;;;;;;;;;;;;7.98;100.00;93616.63;5130300;28;19923;-78
2022/10/31 02:13:19;;;;;;;;;;;;;;;8.00;100.00;93611.28;5130391;28;20597;-78
2022/10/31 02:15:48;;;;;;;;;;;;;;;8.02;100.00;93622.16;5130048;28;20498;-77
2022/10/31 02:18:14;;;;;;;;;;;;;;;8.04;100.00;93621.97;5130541;28;19919;-78
2022/10/31 02:20:47;;;;;;;;;;;;;;;8.07;100.00;93613.91;5130174;28;20359;-79
2022/10/31 02:23:23;;;;;;;;;;;;;;;8.12;100.00;93621.84;5130318;28;19924;-79
2022/10/31 02:26:11;;;;;;;;;;;;;;;8.18;100.00;93615.19;5123884;28;19968;-80
2022/10/31 02:29:01;;;;;;;;;;;;;;;8.23;100.00;93623.09;5104472;28;19965;-80
2022/10/31 02:31:33;;;;;;;;;;;;;;;8.28;100.00;93620.78;5091679;28;19968;-78
2022/10/31 02:34:02;;;;;;;;;;;;;;;8.34;100.00;93619.25;5121499;28;20443;-81
2022/10/31 02:36:33;;;;;;;;;;;;;;;8.40;100.00;93615.94;5120349;28;19975;-81
2022/10/31 02:39:03;;;;;;;;;;;;;;;8.35;100.00;93620.84;5120717;28;19967;-82
2022/10/31 02:41:33;;;;;;;;;;;;;;;8.29;100.00;93620.59;5119889;28;19965;-83
2022/10/31 02:44:05;;;;;;;;;;;;;;;8.32;100.00;93629.69;5119198;27;19920;-82
2022/10/31 02:46:35;;;;;;;;;;;;;;;8.15;100.00;93626.59;5123507;27;19919;-81
2022/10/31 02:49:06;;;;;;;;;;;;;;;8.18;100.00;93626.22;5124673;27;19968;-80
2022/10/31 02:51:32;;;;;;;;;;;;;;;8.29;100.00;93635.19;5123854;27;19924;-80
2022/10/31 02:53:59;;;;;;;;;;;;;;;8.16;100.00;93630.72;5124175;27;19919;-79
2022/10/31 02:56:25;;;;;;;;;;;;;;;8.30;100.00;93626.53;5123074;27;19919;-79
2022/10/31 02:58:54;;;;;;;;;;;;;;;8.38;100.00;93630.72;5122949;27;19923;-79
2022/10/31 03:01:23;;;;;;;;;;;;;;;8.38;100.00;93636.59;5124537;27;19964;-78
2022/10/31 03:04:01;;;;;;;;;;;;;;;8.49;100.00;93637.09;5123691;27;19919;-78
2022/10/31 03:06:31;;;;;;;;;;;;;;;8.46;100.00;93637.47;5124161;27;20353;-79
2022/10/31 03:09:02;;;;;;;;;;;;;;;8.52;100.00;93631.63;5124377;27;19923;-79
2022/10/31 03:11:30;;;;;;;;;;;;;;;8.60;100.00;93638.38;5122773;27;20380;-78
2022/10/31 03:13:59;;;;;;;;;;;;;;;8.64;100.00;93637.81;5122286;27;19955;-78
2022/10/31 03:16:30;;;;;;;;;;;;;;;8.69;100.00;93637.25;5123600;27;19923;-79
2022/10/31 03:18:59;;;;;;;;;;;;;;;8.72;100.00;93636.09;5123896;27;19920;-79
2022/10/31 03:21:29;;;;;;;;;;;;;;;8.73;100.00;93635.09;5122635;27;20420;-80
2022/10/31 03:23:56;;;;;;;;;;;;;;;8.73;100.00;93641.03;5122041;27;19964;-79
2022/10/31 03:26:23;;;;;;;;;;;;;;;8.73;100.00;93651.28;5119028;27;20340;-80
2022/10/31 03:28:52;;;;;;;;;;;;;;;8.71;100.00;93645.56;5122736;27;19919;-79
2022/10/31 03:31:20;;;;;;;;;;;;;;;8.68;100.00;93644.16;5123974;27;19924;-79
2022/10/31 03:33:49;;;;;;;;;;;;;;;8.63;100.00;93638.81;5122336;27;19923;-80
2022/10/31 03:36:18;;;;;;;;;;;;;;;8.60;100.00;93643.50;5122060;27;19991;-81
2022/10/31 03:38:46;;;;;;;;;;;;;;;8.57;100.00;93652.34;5122136;27;20557;-80
2022/10/31 03:41:15;;;;;;;;;;;;;;;8.52;100.00;93655.44;5122751;27;19923;-78
2022/10/31 03:43:43;;;;;;;;;;;;;;;8.49;100.00;93663.50;5129555;27;20383;-79
2022/10/31 03:46:10;;;;;;;;;;;;;;;8.44;100.00;93665.81;5132252;27;19920;-78
2022/10/31 03:48:36;;;;;;;;;;;;;;;8.41;100.00;93661.84;5132729;27;19943;-80
2022/10/31 03:51:07;;;;;;;;;;;;;;;8.39;100.00;93660.44;5132514;27;19919;-80
2022/10/31 03:53:38;;;;;;;;;;;;;;;8.37;100.00;93664.94;5132422;27;20280;-80
2022/10/31 03:56:10;;;;;;;;;;;;;;;8.40;100.00;93665.41;5132004;27;19927;-79
2022/10/31 03:58:39;;;;;;;;;;;;;;;8.43;100.00;93669.34;5132584;27;19919;-79
2022/10/31 04:01:06;;;;;;;;;;;;;;;8.46;100.00;93670.75;5132060;27;19923;-78
2022/10/31 04:03:34;;;;;;;;;;;;;;;8.49;100.00;93667.81;5132142;27;19920;-78
2022/10/31 04:06:03;;;;;;;;;;;;;;;8.51;100.00;93671.78;5132132;27;19980;-81
2022/10/31 04:08:32;;;;;;;;;;;;;;;8.55;100.00;93670.47;5132100;27;19926;-80
2022/10/31 04:11:01;;;;;;;;;;;;;;;8.57;100.00;93672.84;5132044;27;19923;-79
2022/10/31 04:13:28;;;;;;;;;;;;;;;8.51;100.00;93673.53;5131958;27;19983;-79
2022/10/31 04:15:56;;;;;;;;;;;;;;;8.51;100.00;93676.09;5132023;27;20333;-79
2022/10/31 04:18:23;;;;;;;;;;;;;;;8.50;100.00;93675.31;5131758;27;19965;-79
2022/10/31 04:20:50;;;;;;;;;;;;;;;8.49;100.00;93680.63;5131746;27;19935;-79
2022/10/31 04:23:20;;;;;;;;;;;;;;;8.50;100.00;93682.19;5131690;27;19958;-79
2022/10/31 04:25:46;;;;;;;;;;;;;;;8.46;100.00;93678.44;5131376;27;19930;-80
2022/10/31 04:28:14;;;;;;;;;;;;;;;8.51;100.00;93678.66;5131848;27;20339;-79
2022/10/31 04:30:41;;;;;;;;;;;;;;;8.54;100.00;93674.00;5131392;27;19976;-82
2022/10/31 04:33:07;;;;;;;;;;;;;;;8.57;100.00;93679.72;5131725;27;19984;-82
2022/10/31 04:35:33;;;;;;;;;;;;;;;8.61;100.00;93678.38;5131794;27;19919;-80
2022/10/31 04:38:00;;;;;;;;;;;;;;;8.64;100.00;93686.47;5131336;27;19968;-81
2022/10/31 04:40:26;;;;;;;;;;;;;;;8.68;100.00;93682.56;5131219;27;20348;-81
2022/10/31 04:42:53;;;;;;;;;;;;;;;8.71;100.00;93681.41;5131613;27;19969;-81
2022/10/31 04:45:21;;;;;;;;;;;;;;;8.74;100.00;93682.81;5131074;27;19944;-80
2022/10/31 04:47:47;;;;;;;;;;;;;;;8.78;100.00;93682.25;5131714;27;19919;-80
2022/10/31 04:50:14;;;;;;;;;;;;;;;8.79;100.00;93681.25;5131089;27;20428;-81
2022/10/31 04:52:40;;;;;;;;;;;;;;;8.81;100.00;93684.41;5131158;27;19923;-81
2022/10/31 04:55:07;;;;;;;;;;;;;;;8.88;100.00;93692.16;5131108;27;19968;-79
2022/10/31 04:57:33;;;;;;;;;;;;;;;8.92;100.00;93695.94;5130967;27;19923;-78
2022/10/31 05:00:00;;;;;;;;;;;;;;;8.94;100.00;93695.75;5130821;27;20379;-83
2022/10/31 05:02:28;;;;;;;;;;;;;;;8.98;100.00;93694.38;5131026;27;19971;-79
2022/10/31 05:04:54;;;;;;;;;;;;;;;9.00;100.00;93694.19;5130791;27;20371;-79
2022/10/31 05:07:21;;;;;;;;;;;;;;;9.04;100.00;93696.22;5130471;27;19980;-80
2022/10/31 05:09:47;;;;;;;;;;;;;;;9.00;100.00;93696.75;5130888;27;19923;-80
2022/10/31 05:12:14;;;;;;;;;;;;;;;8.99;100.00;93706.25;5130788;27;19927;-79
2022/10/31 05:14:40;;;;;;;;;;;;;;;9.07;100.00;93706.09;5130808;27;19964;-79
2022/10/31 05:17:06;;;;;;;;;;;;;;;9.11;100.00;93705.72;5130472;27;19968;-78
2022/10/31 05:19:34;;;;;;;;;;;;;;;9.13;100.00;93709.69;5130950;27;19942;-78
2022/10/31 05:22:01;;;;;;;;;;;;;;;9.19;100.00;93710.69;5130392;27;20375;-78
2022/10/31 05:24:27;;;;;;;;;;;;;;;9.21;100.00;93714.63;5130531;27;19965;-78
2022/10/31 05:26:54;;;;;;;;;;;;;;;9.20;100.00;93714.81;5130684;27;19923;-80
2022/10/31 05:29:20;;;;;;;;;;;;;;;9.18;100.00;93719.34;5130313;27;19919;-80
2022/10/31 05:31:47;;;;;;;;;;;;;;;9.17;100.00;93716.00;5130186;27;20423;-80
2022/10/31 05:34:13;;;;;;;;;;;;;;;9.19;100.00;93716.59;5130598;27;19980;-80
2022/10/31 05:36:41;;;;;;;;;;;;;;;9.19;100.00;93721.75;5130619;27;19927;-80
2022/10/31 05:39:07;;;;;;;;;;;;;;;9.18;100.00;93721.91;5130378;27;19919;-80
2022/10/31 05:41:34;;;;;;;;;;;;;;;9.19;100.00;93726.06;5130605;27;19922;-83
2022/10/31 05:44:00;;;;;;;;;;;;;;;9.17;100.00;93725.47;5130131;27;19945;-79
2022/10/31 05:46:27;;;;;;;;;;;;;;;9.18;100.00;93732.16;5129850;27;19968;-80
2022/10/31 05:48:53;;;;;;;;;;;;;;;9.18;100.00;93725.28;5130355;27;19919;-79
2022/10/31 05:51:20;;;;;;;;;;;;;;;9.20;100.00;93730.19;5130154;27;19968;-79
2022/10/31 05:53:48;;;;;;;;;;;;;;;9.21;100.00;93731.78;5129651;27;20009;-80
2022/10/31 05:56:14;;;;;;;;;;;;;;;9.23;100.00;93740.09;5130037;27;20374;-81
2022/10/31 05:58:41;;;;;;;;;;;;;;;9.25;100.00;93730.44;5130230;27;19920;-79
2022/10/31 06:01:07;;;;;;;;;;;;;;;9.26;100.00;93732.00;5130050;27;19919;-79
2022/10/31 06:03:34;;;;;;;;;;;;;;;9.29;100.00;93735.97;5130050;27;19919;-80
2022/10/31 06:06:00;;;;;;;;;;;;;;;9.30;100.00;93740.13;5130058;27;19923;-81
2022/10/31 06:08:27;;;;;;;;;;;;;;;9.33;100.00;93734.63;5130142;28;19923;-80
2022/10/31 06:10:55;;;;;;;;;;;;;;;9.42;100.00;93740.38;5125479;28;19924;-77
2022/10/31 06:13:22;;;;;;;;;;;;;;;9.46;100.00;93739.03;5128056;28;19968;-78
2022/10/31 06:15:48;;;;;;;;;;;;;;;9.48;100.00;93745.56;5128718;28;19927;-78
2022/10/31 06:18:15;;;;;;;;;;;;;;;9.55;100.00;93752.50;5129798;27;19919;-79
2022/10/31 06:20:41;;;;;;;;;;;;;;;9.65;100.00;93754.72;5133045;27;19919;-79
2022/10/31 06:23:07;;;;;;;;;;;;;;;9.72;100.00;93750.41;5133735;27;20371;-79
2022/10/31 06:25:34;;;;;;;;;;;;;;;9.82;100.00;93755.97;5134107;27;19923;-79
2022/10/31 06:28:02;;;;;;;;;;;;;;;9.90;100.00;93752.44;5134547;27;20264;-79
2022/10/31 06:30:28;;;;;;;;;;;;;;;9.99;100.00;93748.75;5133887;27;19964;-80
2022/10/31 06:32:55;;;;;;;;;;;;;;;10.11;100.00;93758.44;5134662;27;19923;-80
2022/10/31 06:35:21;;;;;;;;;;;;;;;10.32;100.00;93757.50;5134466;27;19923;-80
2022/10/31 06:37:52;;;;;;;;;;;;;;;10.43;100.00;93759.53;5134213;27;20012;-80
2022/10/31 06:40:18;;;;;;;;;;;;;;;10.52;100.00;93756.81;5134202;27;20428;-80
2022/10/31 06:42:45;;;;;;;;;;;;;;;10.73;100.00;93753.25;5134168;27;19923;-80
2022/10/31 06:45:12;;;;;;;;;;;;;;;10.87;100.00;93764.34;5134397;27;19919;-80
2022/10/31 06:47:39;;;;;;;;;;;;;;;10.95;100.00;93761.59;5134257;27;19919;-81
2022/10/31 06:50:06;;;;;;;;;;;;;;;11.09;100.00;93769.28;5133698;27;20524;-81
2022/10/31 06:52:33;;;;;;;;;;;;;;;11.28;100.00;93767.69;5133964;27;19979;-82
2022/10/31 06:54:59;;;;;;;;;;;;;;;11.46;100.00;93771.41;5133667;27;19973;-82
2022/10/31 06:57:25;;;;;;;;;;;;;;;11.61;100.00;93771.97;5134172;27;20412;-81
2022/10/31 06:59:52;;;;;;;;;;;;;;;11.77;100.00;93767.41;5133951;27;19919;-81
2022/10/31 07:02:20;;;;;;;;;;;;;;;11.79;100.00;93769.78;5133967;27;19964;-82
2022/10/31 07:04:47;;;;;;;;;;;;;;;11.79;100.00;93769.78;5134024;27;19923;-80
2022/10/31 07:07:13;;;;;;;;;;;;;;;11.83;100.00;93765.78;5133570;27;19935;-79
2022/10/31 07:09:40;;;;;;;;;;;;;;;11.87;98.70;93765.19;5133784;27;19923;-80
2022/10/31 07:12:06;;;;;;;;;;;;;;;11.89;99.19;93775.25;5133120;27;19923;-80
2022/10/31 07:14:33;;;;;;;;;;;;;;;12.01;99.81;93771.06;5133763;27;19927;-80
2022/10/31 07:16:59;;;;;;;;;;;;;;;12.02;98.88;93764.94;5133249;27;19927;-81
2022/10/31 07:19:59;;;;;;;;;;;;;;;12.03;99.33;93761.34;5132666;27;19994;-81
2022/10/31 07:22:32;;;;;;;;;;;;;;;12.03;98.50;93771.66;5133720;27;19923;-81
2022/10/31 07:24:59;;;;;;;;;;;;;;;12.12;97.17;93769.66;5133424;27;19924;-81
2022/10/31 07:27:25;;;;;;;;;;;;;;;12.18;96.44;93768.06;5133625;27;20371;-80
2022/10/31 07:29:52;;;;;;;;;;;;;;;12.22;97.71;93766.63;5133281;27;19995;-80
2022/10/31 07:32:18;;;;;;;;;;;;;;;12.35;98.39;93767.59;5133721;27;20050;-82
2022/10/31 07:34:45;;;;;;;;;;;;;;;12.42;98.37;93770.91;5133030;27;19919;-81
2022/10/31 07:37:13;;;;;;;;;;;;;;;12.42;97.53;93761.38;5132804;27;19969;-80
2022/10/31 07:39:41;;;;;;;;;;;;;;;12.50;96.47;93762.16;5118218;27;19923;-81
2022/10/31 07:42:07;;;;;;;;;;;;;;;12.69;93.09;93761.22;5132320;27;20383;-80
2022/10/31 07:44:34;;;;;;;;;;;;;;;12.78;92.43;93756.59;5133183;27;19919;-80
2022/10/31 07:47:00;;;;;;;;;;;;;;;12.89;92.50;93760.31;5132751;27;19923;-80
2022/10/31 07:49:27;;;;;;;;;;;;;;;13.04;89.93;93765.13;5132521;27;19923;-80
2022/10/31 07:52:02;;;;;;;;;;;;;;;13.08;90.29;93763.72;5131909;27;19924;-80
2022/10/31 07:54:28;;;;;;;;;;;;;;;13.12;91.21;93764.09;5132916;27;19980;-79
2022/10/31 07:57:12;;;;;;;;;;;;;;;13.27;91.68;93758.59;5133233;27;19919;-79
2022/10/31 07:59:40;;;;;;;;;;;;;;;13.42;90.83;93757.47;5133403;27;19988;-81
2022/10/31 08:02:08;;;;;;;;;;;;;;;13.55;89.92;93753.97;5132611;27;20375;-82
2022/10/31 08:04:34;;;;;;;;;;;;;;;13.67;90.26;93752.28;5133388;27;19923;-82
2022/10/31 08:07:01;;;;;;;;;;;;;;;13.81;87.97;93759.88;5132605;27;19919;-81
2022/10/31 08:09:27;;;;;;;;;;;;;;;13.96;88.57;93754.34;5132125;27;20348;-80
2022/10/31 08:11:54;;;;;;;;;;;;;;;14.09;87.82;93754.19;5132298;27;19919;-81
2022/10/31 08:14:20;;;;;;;;;;;;;;;14.38;88.00;93757.00;5132469;27;19923;-80
2022/10/31 08:16:48;;;;;;;;;;;;;;;14.63;84.40;93752.69;5132311;27;19923;-80
2022/10/31 08:19:15;;;;;;;;;;;;;;;14.85;82.84;93754.81;5131963;27;19964;-80
2022/10/31 08:21:41;;;;;;;;;;;;;;;14.99;81.25;93763.91;5131759;27;19943;-80
2022/10/31 08:24:08;;;;;;;;;;;;;;;15.13;80.58;93767.09;5131846;27;19927;-80
2022/10/31 08:26:34;;;;;;;;;;;;;;;15.38;83.13;93768.69;5132277;27;19920;-80
2022/10/31 08:29:01;;;;;;;;;;;;;;;15.69;79.27;93765.97;5131823;27;19919;-80
2022/10/31 08:31:27;;;;;;;;;;;;;;;15.93;80.07;93766.75;5131683;27;20455;-80
2022/10/31 08:33:55;;;;;;;;;;;;;;;16.21;75.81;93769.59;5132094;27;19920;-80
2022/10/31 08:36:22;;;;;;;;;;;;;;;16.40;72.73;93765.78;5131992;27;19975;-80
2022/10/31 08:38:49;;;;;;;;;;;;;;;16.49;72.09;93768.00;5132009;27;19919;-80
2022/10/31 08:41:15;;;;;;;;;;;;;;;16.69;76.29;93762.38;5131778;27;19968;-79
2022/10/31 08:43:42;;;;;;;;;;;;;;;16.92;74.32;93763.25;5131257;27;19919;-80
2022/10/31 08:46:08;;;;;;;;;;;;;;;17.14;71.78;93763.38;5131753;27;19923;-80
2022/10/31 08:48:35;;;;;;;;;;;;;;;17.39;73.11;93764.78;5131723;27;19919;-79
2022/10/31 08:51:03;;;;;;;;;;;;;;;17.65;72.12;93769.53;5131712;27;19992;-79
2022/10/31 08:53:29;;;;;;;;;;;;;;;17.84;70.87;93759.63;5131236;27;19964;-79
2022/10/31 08:55:56;;;;;;;;;;;;;;;18.03;69.50;93768.72;5131497;27;19920;-79
2022/10/31 08:58:23;;;;;;;;;;;;;;;18.12;65.40;93763.13;5131394;27;20526;-79
2022/10/31 09:00:51;;;;;;;;;;;;;;;18.28;66.32;93769.25;5128361;27;19920;-78
2022/10/31 09:03:18;;;;;;;;;;;;;;;18.50;64.93;93761.44;5131607;27;20284;-79
2022/10/31 09:05:45;;;;;;;;;;;;;;;18.76;66.76;93761.69;5131759;27;20268;-78
2022/10/31 09:08:13;;;;;;;;;;;;;;;18.90;65.28;93771.69;5131596;27;19920;-79
2022/10/31 09:10:40;;;;;;;;;;;;;;;19.07;63.57;93767.16;5130882;27;19964;-79
2022/10/31 09:13:09;;;;;;;;;;;;;;;19.17;61.63;93768.28;5128473;27;19923;-79
2022/10/31 09:15:36;;;;;;;;;;;;;;;19.21;60.11;93769.34;5128999;27;19919;-79
2022/10/31 09:18:03;;;;;;;;;;;;;;;19.14;59.11;93768.75;5131454;27;19927;-79
2022/10/31 09:20:30;;;;;;;;;;;;;;;19.13;60.64;93772.41;5131376;27;19919;-78
2022/10/31 09:22:57;;;;;;;;;;;;;;;19.25;60.96;93767.03;5130801;27;19923;-78
2022/10/31 09:25:25;;;;;;;;;;;;;;;19.30;61.31;93770.44;5130772;27;19920;-78
2022/10/31 09:27:56;;;;;;;;;;;;;;;19.46;61.10;93770.53;5131091;27;19948;-80
2022/10/31 09:30:22;;;;;;;;;;;;;;;19.55;60.44;93760.44;5130741;27;19931;-79
2022/10/31 09:32:49;;;;;;;;;;;;;;;19.66;60.84;93766.50;5130681;27;20336;-80
2022/10/31 09:35:15;;;;;;;;;;;;;;;19.62;58.04;93766.19;5131247;27;19965;-79
2022/10/31 09:37:42;;;;;;;;;;;;;;;19.45;57.35;93767.13;5131263;27;19945;-81
2022/10/31 09:40:09;;;;;;;;;;;;;;;19.67;61.00;93757.63;5130628;27;19923;-80
2022/10/31 09:42:51;;;;;;;;;;;;;;;19.89;57.26;93758.25;5130500;27;20375;-80
2022/10/31 09:45:22;;;;;;;;;;;;;;;20.14;59.93;93746.38;5130485;27;20390;-80
2022/10/31 09:47:56;;;;;;;;;;;;;;;20.38;56.43;93753.78;5130649;27;19965;-79
2022/10/31 09:50:25;;;;;;;;;;;;;;;20.56;57.20;93747.25;5130930;27;19919;-79
2022/10/31 09:52:55;;;;;;;;;;;;;;;20.69;55.81;93751.19;5130599;27;19919;-79
2022/10/31 09:55:24;;;;;;;;;;;;;;;20.83;55.52;93748.84;5130578;27;19923;-79
2022/10/31 09:57:52;;;;;;;;;;;;;;;20.88;52.53;93752.56;5130183;27;20424;-79
2022/10/31 10:00:19;;;;;;;;;;;;;;;20.66;54.66;93748.31;5130632;27;19919;-79
2022/10/31 10:02:48;;;;;;;;;;;;;;;20.50;53.60;93758.72;5130619;27;20318;-80
2022/10/31 10:05:18;;;;;;;;;;;;;;;20.05;53.74;93757.56;5130201;27;19919;-79
2022/10/31 10:07:50;;;;;;;;;;;;;;;20.10;54.80;93754.97;5130458;27;20340;-78
2022/10/31 10:10:18;;;;;;;;;;;;;;;20.10;55.61;93747.16;5130388;28;19919;-78
2022/10/31 10:13:06;;;;;;;;;;;;;;;19.86;54.14;93747.56;5130553;28;20325;-78
2022/10/31 10:15:43;;;;;;;;;;;;;;;19.90;54.60;93749.41;5130169;28;19919;-78
2022/10/31 10:18:15;;;;;;;;;;;;;;;19.97;54.09;93745.81;5130365;28;19923;-78
2022/10/31 10:20:44;;;;;;;;;;;;;;;19.88;54.67;93740.25;5130428;28;19923;-79
2022/10/31 10:23:28;;;;;;;;;;;;;;;19.92;54.40;93732.72;5111222;28;20334;-78
2022/10/31 10:25:58;;;;;;;;;;;;;;;19.82;54.26;93726.44;5128782;28;19919;-79
2022/10/31 10:28:31;;;;;;;;;;;;;;;20.02;53.70;93740.59;5129997;28;19923;-78
2022/10/31 10:31:01;;;;;;;;;;;;;;;20.10;54.00;93729.69;5130297;28;19942;-79
2022/10/31 10:33:29;;;;;;;;;;;;;;;20.12;53.36;93725.00;5129758;28;20436;-79
2022/10/31 10:35:58;;;;;;;;;;;;;;;20.25;54.03;93734.16;5129964;28;19969;-78
2022/10/31 10:38:28;;;;;;;;;;;;;;;20.12;53.22;93727.59;5130301;28;20325;-78
2022/10/31 10:40:55;;;;;;;;;;;;;;;20.24;53.64;93730.00;5129869;28;19923;-78
2022/10/31 10:43:22;;;;;;;;;;;;;;;20.32;53.45;93712.25;5129935;28;19919;-77
2022/10/31 10:48:46;;;;;;;;;;;;;;;20.55;52.35;93719.59;5129985;28;19925;-78
2022/10/31 10:51:20;;;;;;;;;;;;;;;20.35;52.35;93722.16;5130278;28;19967;-78
2022/10/31 10:54:01;;;;;;;;;;;;;;;20.59;51.89;93722.47;5130057;28;19923;-77
2022/10/31 10:56:35;;;;;;;;;;;;;;;20.31;52.29;93724.50;5130140;28;19926;-78
2022/10/31 10:59:02;;;;;;;;;;;;;;;20.63;51.90;93717.50;5130756;28;19919;-78
2022/10/31 11:01:30;;;;;;;;;;;;;;;20.54;51.40;93719.84;5130460;28;19968;-79
2022/10/31 11:03:57;;;;;;;;;;;;;;;20.78;52.11;93711.53;5129763;28;19923;-78
2022/10/31 11:06:26;;;;;;;;;;;;;;;20.77;52.20;93712.56;5124638;27;19923;-79
2022/10/31 11:08:53;;;;;;;;;;;;;;;20.89;51.23;93710.53;5128390;27;20025;-77
2022/10/31 11:11:27;;;;;;;;;;;;;;;20.93;49.35;93705.56;5132726;27;19974;-80
2022/10/31 11:13:56;;;;;;;;;;;;;;;21.02;51.04;93701.34;5134295;27;19926;-78
2022/10/31 11:16:28;;;;;;;;;;;;;;;20.93;50.35;93702.94;5134060;27;19979;-79
2022/10/31 11:19:07;;;;;;;;;;;;;;;21.01;51.15;93693.78;5134151;27;19972;-78
2022/10/31 11:21:34;;;;;;;;;;;;;;;20.87;50.67;93704.00;5133980;27;19944;-79
2022/10/31 11:24:04;;;;;;;;;;;;;;;20.91;49.33;93700.59;5134153;27;20332;-78
2022/10/31 11:26:31;;;;;;;;;;;;;;;20.85;49.55;93692.97;5133658;27;20448;-79
2022/10/31 11:28:58;;;;;;;;;;;;;;;21.00;50.54;93692.22;5134045;27;19927;-78
2022/10/31 11:31:26;;;;;;;;;;;;;;;20.99;50.13;93685.41;5133670;27;19923;-78
2022/10/31 11:33:57;;;;;;;;;;;;;;;21.04;49.94;93682.81;5121727;27;19919;-79
2022/10/31 11:36:26;;;;;;;;;;;;;;;21.15;49.67;93681.75;5125912;27;19919;-79
2022/10/31 11:38:53;;;;;;;;;;;;;;;20.91;49.70;93684.13;5133180;27;19923;-78
2022/10/31 11:41:25;;;;;;;;;;;;;;;20.96;50.60;93674.47;5133467;27;19919;-79
2022/10/31 11:43:54;;;;;;;;;;;;;;;21.04;49.89;93673.16;5132866;27;20444;-79
2022/10/31 11:46:23;;;;;;;;;;;;;;;20.98;50.78;93671.59;5133725;27;19923;-79
2022/10/31 11:48:51;;;;;;;;;;;;;;;20.85;50.67;93677.31;5133269;27;19923;-78
2022/10/31 11:51:21;;;;;;;;;;;;;;;20.77;50.81;93655.91;5133204;27;20348;-78
2022/10/31 11:53:53;;;;;;;;;;;;;;;20.77;50.59;93658.53;5132918;27;19923;-78
2022/10/31 11:56:19;;;;;;;;;;;;;;;20.74;51.29;93660.88;5133526;27;19923;-79
2022/10/31 11:58:55;;;;;;;;;;;;;;;20.69;50.91;93651.25;5133420;27;19923;-79
2022/10/31 12:01:24;;;;;;;;;;;;;;;20.88;50.76;93656.72;5133374;27;19919;-79
2022/10/31 12:03:58;;;;;;;;;;;;;;;20.59;50.93;93666.91;5133439;27;20274;-79
2022/10/31 12:06:25;;;;;;;;;;;;;;;20.42;50.85;93655.66;5133657;27;19936;-79
2022/10/31 12:08:53;;;;;;;;;;;;;;;20.31;51.09;93654.06;5132514;27;20466;-78
2022/10/31 12:11:28;;;;;;;;;;;;;;;20.28;50.89;93650.16;5133223;27;19923;-79
2022/10/31 12:14:00;;;;;;;;;;;;;;;20.22;51.47;93656.41;5132885;27;20371;-79
2022/10/31 12:16:29;;;;;;;;;;;;;;;20.10;52.28;93648.84;5132882;27;19923;-78
2022/10/31 12:19:01;;;;;;;;;;;;;;;20.07;52.28;93656.38;5132753;27;19944;-78
2022/10/31 12:21:33;;;;;;;;;;;;;;;20.04;52.45;93649.84;5132566;27;19923;-78
2022/10/31 12:24:05;;;;;;;;;;;;;;;20.02;52.24;93659.78;5132059;27;19919;-78
2022/10/31 12:26:35;;;;;;;;;;;;;;;19.94;52.62;93653.22;5132545;27;19919;-77
2022/10/31 12:29:08;;;;;;;;;;;;;;;19.97;52.43;93660.56;5132412;27;19924;-77
2022/10/31 12:31:40;;;;;;;;;;;;;;;20.02;52.55;93654.56;5132700;27;19926;-77
2022/10/31 12:34:27;;;;;;;;;;;;;;;20.02;52.83;93662.38;5132215;27;20305;-77
2022/10/31 12:37:00;;;;;;;;;;;;;;;20.01;52.59;93655.59;5123968;27;19976;-78
2022/10/31 12:39:46;;;;;;;;;;;;;;;20.01;53.19;93655.59;5132384;27;19923;-78
2022/10/31 12:42:18;;;;;;;;;;;;;;;20.08;52.84;93648.31;5131326;27;20295;-78
2022/10/31 12:44:59;;;;;;;;;;;;;;;20.10;52.65;93648.84;5132529;27;19919;-78
2022/10/31 12:47:44;;;;;;;;;;;;;;;20.15;52.87;93654.06;5131996;27;19923;-78
2022/10/31 12:50:24;;;;;;;;;;;;;;;20.18;52.32;93657.19;5120568;27;19923;-78
2022/10/31 12:53:06;;;;;;;;;;;;;;;20.26;52.27;93656.69;5131726;27;20375;-78
2022/10/31 12:55:48;;;;;;;;;;;;;;;20.24;52.22;93649.13;5119207;27;20010;-78